aviador You're here:

LFQA Decoded Metar

REIMS in FRANCE
Report Time2018-06-17 21:30:00
UTC Time2018-06-17 21:56:11
Flight Rules vfr VFR
Wind350° at 02 kt
W.Decomp.*RWY 07: 0.3 kt HW 2 kt LCW
W.Rank350° ranks 20
Current wind is below 350° avg. (5.7)
Visibility9999 m
Phenomena:N/A
Clouds:N/A
Expected CloudBase > 400 ft AGL from Temp-Dew spread
CeilingNone
Temp11°C (ISA -3)
Dew Point10°C (94% RH)
AAT10.3°C
QNH1021 hPa
Density Alt-197 ft
Elevation312 ft
Report Wrong Elevation
Raw Report
METAR LFQA 172130Z AUTO 35002KT CAVOK 11/10 Q1021=

Extra information for LFQA:More info

Metar Taf Metar & Taf Last 4 Metars F.Rules Stats Wind Profile Meteogram Temp Stats Airport Information Weather charts Add Link Nearby VenuesMetar ALERT Operation Metar Decoded Social comments